EGBJ/GLO METAR and TAF weather

Enter ICAO airport designator
Station Type Date Time Source
EGBJ METAR 2022/08/13 11:50 UTC NOAA

EGBJ 131150Z 01007KT 340V060 CAVOK 30/14 Q1014


Station Type Date Time Source
EGBJ Decoded METAR 2022/08/13 11:50 UTC NOAA

Staverton Private , United Kingdom (EGBJ) 51-54N 002-10W
Aug 13, 2022 - 07:50 AM EDT / 2022.08.13 1150 UTC
Wind: from the N (010 degrees) at 8 MPH (7 KT) (direction variable):0
Visibility: greater than 7 mile(s):0
Temperature: 86 F (30 C)
Dew Point: 57 F (14 C)
Relative Humidity: 37%
Pressure (altimeter): 29.94 in. Hg (1014 hPa)
ob: EGBJ 131150Z 01007KT 340V060 CAVOK 30/14 Q1014
cycle: 12

Station Type Date Time Source
EGBJ TAF UTC NOAA

Error!

Example: see airport list